»·PEaware :: N512CP KTUS-KPHX

N512CP :: KTUS-KPHX

FLIGHT INFORMATION

Flight Status: Arrived
Operator: Privately registered:
United States
More flights under this callsign
Pilot: Elso C. (28218)
Aircraft: CIRRUS SR-22
(SR22)
More flights by this aircraft type
Origin: KTUS Tucson Intl
United States
Destination: KPHX Phoenix Sky Harbor Intl
United States
More flights between these airports :: More routes between these airports
Route:
File this flight plan on PilotEdge
Remarks:
Altitude:
(Current/Filed)
7,500ft
Speed:
(Current/Filed)
150kts
Departed: 29-Jul-23 05:38 PM
Arrived: 29-Jul-23 06:16 PM
Distance/Time
Traveled:
96nm/0:38
Distance/Time
To Go:
Arrived

Flight Plot

Page will automatically refresh every two minutes.

Flight plan parsing failed; only flown route is shown


Map Options




Map Legend


Flown Route
Filed Route
Departure Airport
Arrival Airport
Navaid (VOR, NDB)
Fix

Horizontal Profiles

Position Reports

Time Latitude Longitude Heading Altitude Ground
Speed
29-Jul-23 17:24 32.125628 -110.945534 224 2573ft 0kts
29-Jul-23 17:25 32.125628 -110.945534 224 2573ft 0kts
29-Jul-23 17:26 32.125628 -110.945534 224 2573ft 0kts
29-Jul-23 17:27 32.125628 -110.945534 224 2573ft 0kts
29-Jul-23 17:28 32.125628 -110.945534 224 2573ft 0kts
29-Jul-23 17:29 32.125628 -110.945534 224 2573ft 0kts
29-Jul-23 17:30 32.125628 -110.945534 224 2573ft 0kts
29-Jul-23 17:31 32.125628 -110.945534 224 2573ft 0kts
29-Jul-23 17:32 32.125700 -110.945909 212 2572ft 19kts
29-Jul-23 17:33 32.121645 -110.943306 133 2585ft 28kts
29-Jul-23 17:34 32.116895 -110.937664 138 2603ft 31kts
29-Jul-23 17:35 32.111663 -110.932149 178 2618ft 15kts
29-Jul-23 17:36 32.111411 -110.932347 246 2619ft 0kts
29-Jul-23 17:37 32.122040 -110.945139 319 2825ft 113kts
29-Jul-23 17:38 32.147685 -110.971447 318 3830ft 127kts
29-Jul-23 17:39 32.177260 -110.995601 321 4836ft 130kts
29-Jul-23 17:40 32.205678 -111.021972 321 5835ft 130kts
29-Jul-23 17:41 32.234047 -111.048292 321 6830ft 129kts
29-Jul-23 17:42 32.262753 -111.074920 321 7516ft 146kts
29-Jul-23 17:43 32.300118 -111.105698 326 7504ft 173kts
29-Jul-23 17:44 32.340929 -111.137794 326 7501ft 177kts
29-Jul-23 17:45 32.382241 -111.170330 326 7499ft 176kts
29-Jul-23 17:46 32.422808 -111.202318 326 7500ft 173kts
29-Jul-23 17:47 32.462944 -111.233999 326 7501ft 173kts
29-Jul-23 17:48 32.503092 -111.265721 326 7501ft 173kts
29-Jul-23 17:49 32.543246 -111.297404 326 7501ft 173kts
29-Jul-23 17:50 32.583324 -111.329119 326 7501ft 173kts
29-Jul-23 17:51 32.623396 -111.360886 326 7500ft 171kts
29-Jul-23 17:52 32.662886 -111.392067 326 7500ft 169kts
29-Jul-23 17:53 32.702104 -111.422938 326 7501ft 168kts
29-Jul-23 17:54 32.741333 -111.453812 326 7501ft 168kts
29-Jul-23 17:55 32.780436 -111.484583 326 7501ft 168kts
29-Jul-23 17:56 32.819682 -111.515462 326 7501ft 168kts
29-Jul-23 17:57 32.858935 -111.546344 326 7501ft 168kts
29-Jul-23 17:58 32.898157 -111.577196 326 7501ft 168kts
29-Jul-23 17:59 32.937371 -111.608040 326 7501ft 168kts
29-Jul-23 18:00 32.976611 -111.638900 326 7501ft 168kts
29-Jul-23 18:01 33.016010 -111.669882 326 7499ft 167kts
29-Jul-23 18:02 33.054463 -111.700136 326 7500ft 164kts
29-Jul-23 18:03 33.092835 -111.730311 326 7501ft 164kts
29-Jul-23 18:04 33.131139 -111.760305 329 7500ft 164kts
29-Jul-23 18:05 33.172353 -111.784898 334 7501ft 164kts
29-Jul-23 18:06 33.214626 -111.804873 335 7431ft 163kts
29-Jul-23 18:07 33.257438 -111.826813 340 6457ft 165kts
29-Jul-23 18:08 33.300492 -111.845555 333 5514ft 168kts
29-Jul-23 18:09 33.338707 -111.876466 325 4184ft 157kts
29-Jul-23 18:10 33.374864 -111.903723 331 2861ft 145kts
29-Jul-23 18:11 33.406967 -111.924868 331 2061ft 97kts
29-Jul-23 18:12 33.423601 -111.951065 303 2250ft 109kts
29-Jul-23 18:13 33.428875 -111.982620 268 1463ft 92kts
29-Jul-23 18:14 33.428856 -112.009318 266 1117ft 47kts
29-Jul-23 18:15 33.427770 -112.015588 267 1114ft 18kts
29-Jul-23 18:16 33.427284 -112.023914 161 1112ft 20kts

Navigation Log

Ident Type
Flight plan parsing failed, navigation log unavailable